ALK143 VCBI-VABB
Flight info
| Callsign | ALK143 |
|---|---|
| Flight time | N/A |
| Altitude | 36000 |
| Route | DEMON1D DEMON R461 GUNIM R458 BBM/N0357F200 W126 EPKOS MOLGO2A |
| Aircraft | A320/M-SDE3FGHIRWY/LB1 |
Departure
| Time | 2026-05-06 09:46 |
|---|---|
| Airport | Bandaranaike International Colombo Airport (VCBI) |
Arrival
| Time | N/A |
|---|---|
| Airport | Chhatrapati Shivaji Maharaj International Airport (VABB) |
| Time | Latitude | Longitude | Altitude | Speed | Heading |
|---|---|---|---|---|---|
| 2026-05-06 09:32 | 7.17564 | 79.88453 | 27 ft | 0 kts | 37° |
| 2026-05-06 09:34 | 7.17546 | 79.88437 | 69 ft | 4 kts | 50° |
| 2026-05-06 09:35 | 7.17530 | 79.88419 | 16 ft | 4 kts | 12° |
| 2026-05-06 09:35 | 7.17511 | 79.88422 | 27 ft | 4 kts | 340° |
| 2026-05-06 09:35 | 7.17488 | 79.88434 | 27 ft | 4 kts | 313° |
| 2026-05-06 09:35 | 7.17473 | 79.88456 | 27 ft | 4 kts | 302° |
| 2026-05-06 09:36 | 7.17467 | 79.88464 | 27 ft | 1 kts | 307° |
| 2026-05-06 09:38 | 7.17468 | 79.88464 | 27 ft | 1 kts | 307° |
| 2026-05-06 09:38 | 7.17471 | 79.88460 | 27 ft | 1 kts | 307° |
| 2026-05-06 09:39 | 7.17481 | 79.88446 | 27 ft | 5 kts | 307° |
| 2026-05-06 09:39 | 7.17506 | 79.88413 | 27 ft | 7 kts | 306° |
| 2026-05-06 09:39 | 7.17539 | 79.88370 | 27 ft | 9 kts | 307° |
| 2026-05-06 09:39 | 7.17579 | 79.88316 | 27 ft | 11 kts | 307° |
| 2026-05-06 09:40 | 7.17614 | 79.88270 | 27 ft | 7 kts | 309° |
| 2026-05-06 09:40 | 7.17663 | 79.88260 | 28 ft | 8 kts | 21° |
| 2026-05-06 09:40 | 7.17775 | 79.88341 | 28 ft | 12 kts | 37° |
| 2026-05-06 09:41 | 7.17845 | 79.88395 | 27 ft | 14 kts | 37° |
| 2026-05-06 09:41 | 7.17924 | 79.88455 | 28 ft | 15 kts | 37° |
| 2026-05-06 09:41 | 7.18013 | 79.88523 | 27 ft | 17 kts | 37° |
| 2026-05-06 09:41 | 7.18113 | 79.88599 | 27 ft | 19 kts | 37° |
| 2026-05-06 09:42 | 7.18222 | 79.88682 | 27 ft | 20 kts | 37° |
| 2026-05-06 09:42 | 7.18339 | 79.88773 | 27 ft | 22 kts | 37° |
| 2026-05-06 09:42 | 7.18467 | 79.88869 | 28 ft | 24 kts | 36° |
| 2026-05-06 09:42 | 7.18602 | 79.88973 | 28 ft | 25 kts | 38° |
| 2026-05-06 09:43 | 7.18748 | 79.89083 | 28 ft | 27 kts | 36° |
| 2026-05-06 09:43 | 7.18899 | 79.89199 | 27 ft | 27 kts | 37° |
| 2026-05-06 09:43 | 7.19051 | 79.89316 | 27 ft | 26 kts | 37° |
| 2026-05-06 09:43 | 7.19123 | 79.89371 | 27 ft | 9 kts | 37° |
| 2026-05-06 09:44 | 7.19161 | 79.89400 | 27 ft | 3 kts | 37° |
| 2026-05-06 09:44 | 7.19184 | 79.89412 | 27 ft | 5 kts | 11° |
| 2026-05-06 09:44 | 7.19218 | 79.89394 | 27 ft | 7 kts | 314° |
| 2026-05-06 09:44 | 7.19251 | 79.89352 | 27 ft | 9 kts | 307° |
| 2026-05-06 09:45 | 7.19283 | 79.89309 | 27 ft | 6 kts | 307° |
| 2026-05-06 09:45 | 7.19285 | 79.89269 | 27 ft | 7 kts | 234° |
| 2026-05-06 09:45 | 7.19241 | 79.89235 | 27 ft | 11 kts | 216° |
| 2026-05-06 09:45 | 7.19024 | 79.89070 | 28 ft | 72 kts | 217° |
| 2026-05-06 09:46 | 7.18467 | 79.88645 | 28 ft | 126 kts | 217° |
| 2026-05-06 09:46 | 7.17645 | 79.88026 | 69 ft | 164 kts | 217° |
| 2026-05-06 09:46 | 7.16725 | 79.87320 | 572 ft | 169 kts | 217° |
| 2026-05-06 09:46 | 7.15951 | 79.86448 | 1176 ft | 169 kts | 247° |
| 2026-05-06 09:47 | 7.15835 | 79.85291 | 1814 ft | 171 kts | 276° |
| 2026-05-06 09:47 | 7.16130 | 79.84045 | 2015 ft | 196 kts | 286° |
| 2026-05-06 09:47 | 7.16603 | 79.82668 | 2241 ft | 222 kts | 286° |
| 2026-05-06 09:47 | 7.17188 | 79.81128 | 2528 ft | 250 kts | 297° |
| 2026-05-06 09:48 | 7.18503 | 79.79918 | 3094 ft | 268 kts | 335° |
| 2026-05-06 09:48 | 7.20354 | 79.79702 | 3818 ft | 275 kts | 12° |
| 2026-05-06 09:48 | 7.22086 | 79.80508 | 4633 ft | 277 kts | 33° |
| 2026-05-06 09:48 | 7.23668 | 79.81635 | 5446 ft | 280 kts | 38° |
| 2026-05-06 09:49 | 7.25186 | 79.82872 | 6274 ft | 281 kts | 41° |
| 2026-05-06 09:49 | 7.26657 | 79.84176 | 7072 ft | 282 kts | 42° |
| 2026-05-06 09:49 | 7.28142 | 79.85483 | 7798 ft | 286 kts | 39° |
| 2026-05-06 09:49 | 7.29701 | 79.86745 | 8550 ft | 289 kts | 38° |
| 2026-05-06 09:50 | 7.31302 | 79.87984 | 9278 ft | 292 kts | 37° |
| 2026-05-06 09:50 | 7.32930 | 79.89226 | 9968 ft | 295 kts | 36° |
| 2026-05-06 09:50 | 7.34653 | 79.90391 | 10399 ft | 307 kts | 27° |
| 2026-05-06 09:50 | 7.36717 | 79.91175 | 10539 ft | 328 kts | 12° |
| 2026-05-06 09:51 | 7.38942 | 79.91423 | 10905 ft | 337 kts | 360° |
| 2026-05-06 09:51 | 7.41389 | 79.91462 | 11492 ft | 342 kts | 0° |
| 2026-05-06 09:51 | 7.43602 | 79.91422 | 12013 ft | 345 kts | 353° |
| 2026-05-06 09:51 | 7.45963 | 79.90903 | 12607 ft | 346 kts | 340° |
| 2026-05-06 09:52 | 7.48126 | 79.89875 | 13200 ft | 348 kts | 326° |
| 2026-05-06 09:52 | 7.50128 | 79.88504 | 13791 ft | 349 kts | 324° |
| 2026-05-06 09:52 | 7.51730 | 79.87405 | 14187 ft | 352 kts | 325° |
| 2026-05-06 09:52 | 7.53874 | 79.85944 | 14700 ft | 356 kts | 324° |
| 2026-05-06 09:53 | 7.55940 | 79.84542 | 15208 ft | 359 kts | 324° |
| 2026-05-06 09:53 | 7.58022 | 79.83128 | 15683 ft | 363 kts | 325° |
| 2026-05-06 09:53 | 7.60090 | 79.81660 | 16187 ft | 365 kts | 319° |
| 2026-05-06 09:53 | 7.61991 | 79.79949 | 16657 ft | 368 kts | 316° |
| 2026-05-06 09:54 | 7.63892 | 79.78201 | 17145 ft | 371 kts | 316° |
| 2026-05-06 09:54 | 7.65805 | 79.76441 | 17634 ft | 374 kts | 316° |
| 2026-05-06 09:54 | 7.67732 | 79.74664 | 18091 ft | 377 kts | 316° |
| 2026-05-06 09:54 | 7.69677 | 79.72871 | 18512 ft | 380 kts | 316° |
| 2026-05-06 09:55 | 7.71635 | 79.71067 | 18956 ft | 382 kts | 316° |
| 2026-05-06 09:55 | 7.73606 | 79.69255 | 19412 ft | 384 kts | 316° |
| 2026-05-06 09:55 | 7.75585 | 79.67437 | 19862 ft | 386 kts | 316° |
| 2026-05-06 09:55 | 7.77578 | 79.65605 | 20296 ft | 389 kts | 316° |